TimePST,TemperatureF,Dew PointF,Humidity,Sea Level PressureIn,VisibilityMPH,Wind Direction,Wind SpeedMPH,Gust SpeedMPH,PrecipitationIn,Events,Conditions,WindDirDegrees,DateUTC
12:56 AM,21.9,-4.0,32,30.42,10.0,SSW,6.9,-,N/A,,Clear,200,2012-12-20 08:56:00
1:56 AM,19.9,-4.0,35,30.42,10.0,Calm,Calm,-,N/A,,Clear,0,2012-12-20 09:56:00
2:56 AM,17.1,-6.0,36,30.40,10.0,SSW,5.8,-,N/A,,Clear,210,2012-12-20 10:56:00
3:56 AM,17.1,-5.1,37,30.39,10.0,SW,5.8,-,N/A,,Clear,230,2012-12-20 11:56:00
4:56 AM,16.0,-5.1,39,30.39,10.0,South,6.9,-,N/A,,Clear,180,2012-12-20 12:56:00
5:56 AM,16.0,-5.1,39,30.41,10.0,Calm,Calm,-,N/A,,Clear,0,2012-12-20 13:56:00
6:56 AM,12.9,-6.0,43,30.42,10.0,Calm,Calm,-,N/A,,Partly Cloudy,0,2012-12-20 14:56:00
7:56 AM,21.0,-2.9,35,30.42,10.0,Calm,Calm,-,N/A,,Partly Cloudy,0,2012-12-20 15:56:00
8:56 AM,27.0,-2.0,29,30.43,10.0,Calm,Calm,-,N/A,,Partly Cloudy,0,2012-12-20 16:56:00
9:56 AM,33.1,-0.9,23,30.43,10.0,Calm,Calm,-,N/A,,Partly Cloudy,0,2012-12-20 17:56:00
10:56 AM,39.9,-0.0,19,30.39,10.0,Calm,Calm,-,N/A,,Partly Cloudy,0,2012-12-20 18:56:00
11:56 AM,43.0,1.9,18,30.35,10.0,Calm,Calm,-,N/A,,Clear,0,2012-12-20 19:56:00
12:56 PM,46.0,1.9,16,30.30,10.0,Calm,Calm,-,N/A,,Clear,0,2012-12-20 20:56:00
1:56 PM,46.9,1.9,16,30.28,10.0,Calm,Calm,-,N/A,,Clear,0,2012-12-20 21:56:00
2:56 PM,46.9,1.9,16,30.26,10.0,East,4.6,-,N/A,,Clear,100,2012-12-20 22:56:00
3:56 PM,48.0,3.0,16,30.25,10.0,East,3.5,-,N/A,,Clear,100,2012-12-20 23:56:00
4:56 PM,43.0,3.9,20,30.26,10.0,Calm,Calm,-,N/A,,Clear,0,2012-12-21 00:56:00
5:56 PM,35.1,-0.9,22,30.27,10.0,West,9.2,-,N/A,,Clear,260,2012-12-21 01:56:00
6:56 PM,30.0,-2.0,25,30.29,10.0,Calm,Calm,-,N/A,,Clear,0,2012-12-21 02:56:00
7:56 PM,30.9,-2.0,24,30.28,10.0,SSW,6.9,-,N/A,,Clear,210,2012-12-21 03:56:00
8:56 PM,27.0,-2.0,29,30.28,10.0,SSW,9.2,-,N/A,,Clear,210,2012-12-21 04:56:00
9:56 PM,26.1,-0.9,31,30.28,10.0,SSW,9.2,-,N/A,,Clear,200,2012-12-21 05:56:00
10:56 PM,26.1,-0.9,31,30.27,10.0,Calm,Calm,-,N/A,,Clear,0,2012-12-21 06:56:00
11:56 PM,19.9,-6.0,32,30.26,10.0,Calm,Calm,-,N/A,,Clear,0,2012-12-21 07:56:00